createdAt,value
2022-08-20T00:01:01.661Z,12.45
2022-08-20T00:06:10.172Z,13.05
2022-08-20T00:11:14.479Z,14.60
2022-08-20T00:16:18.757Z,10.95
2022-08-20T00:21:26.404Z,9.45
2022-08-20T00:26:32.758Z,11.55
2022-08-20T00:31:35.187Z,13.07
2022-08-20T00:36:37.707Z,13.43
2022-08-20T00:41:42.519Z,12.82
2022-08-20T00:46:47.359Z,13.10
2022-08-20T00:51:57.703Z,11.82
2022-08-20T00:57:03.734Z,12.00
2022-08-20T01:02:09.935Z,12.88
2022-08-20T01:07:14.537Z,15.18
2022-08-20T01:12:17.298Z,12.40
2022-08-20T01:17:25.580Z,13.75
2022-08-20T01:22:49.136Z,19.40
2022-08-20T01:28:00.156Z,17.65
2022-08-20T01:33:06.068Z,21.48
2022-08-20T01:38:09.116Z,18.90
2022-08-20T01:43:17.260Z,24.17
2022-08-20T01:48:26.024Z,18.70
2022-08-20T01:53:33.826Z,21.48
2022-08-20T01:58:40.546Z,18.63
2022-08-20T02:03:44.740Z,20.67
2022-08-20T02:08:52.183Z,20.70
2022-08-20T02:14:02.057Z,20.42
2022-08-20T02:19:10.075Z,22.08
2022-08-20T02:24:15.020Z,20.17
2022-08-20T02:29:17.637Z,20.02
2022-08-20T02:34:24.377Z,21.90
2022-08-20T02:39:29.062Z,20.25
2022-08-20T02:44:33.599Z,22.55
2022-08-20T02:49:38.463Z,23.55
2022-08-20T02:54:52.257Z,21.42
2022-08-20T02:59:54.551Z,22.30
2022-08-20T03:05:04.734Z,22.02
2022-08-20T03:10:12.578Z,21.75
2022-08-20T03:15:17.981Z,22.55
2022-08-20T03:20:26.042Z,24.73
2022-08-20T03:25:31.224Z,19.35
2022-08-20T03:30:38.396Z,19.75
2022-08-20T03:35:43.473Z,17.88
2022-08-20T03:40:51.265Z,18.30
2022-08-20T03:45:59.388Z,17.83
2022-08-20T03:51:04.579Z,16.77
2022-08-20T03:56:13.117Z,17.80
2022-08-20T04:01:45.646Z,24.35
2022-08-20T04:06:37.887Z,19.55
2022-08-20T04:11:41.887Z,15.20
2022-08-20T04:16:49.190Z,14.77
2022-08-20T04:21:51.830Z,18.77
2022-08-20T04:26:55.087Z,16.25
2022-08-20T04:32:00.766Z,15.43
2022-08-20T04:37:16.791Z,14.40
2022-08-20T04:42:19.865Z,19.70
2022-08-20T04:47:34.508Z,22.48
2022-08-20T04:52:41.809Z,17.13
2022-08-20T04:57:46.354Z,19.02
2022-08-20T05:02:49.283Z,19.58
2022-08-20T05:07:54.414Z,17.67
2022-08-20T05:12:57.437Z,20.45
2022-08-20T05:18:04.036Z,19.98
2022-08-20T05:23:12.411Z,23.00
2022-08-20T05:28:18.803Z,24.33
2022-08-20T05:33:21.971Z,25.23
2022-08-20T05:38:31.387Z,27.17
2022-08-20T05:43:39.147Z,24.52
2022-08-20T05:48:43.833Z,24.58
2022-08-20T05:53:46.159Z,25.73
2022-08-20T05:58:51.155Z,26.40
2022-08-20T06:04:15.757Z,27.13
2022-08-20T06:09:30.885Z,21.40
2022-08-20T06:14:37.588Z,24.85
2022-08-20T06:19:44.406Z,24.55
2022-08-20T06:24:51.802Z,26.30
2022-08-20T06:29:57.403Z,23.77
2022-08-20T06:35:02.318Z,30.88
2022-08-20T06:40:11.223Z,28.75
2022-08-20T06:45:32.293Z,34.78
2022-08-20T06:50:46.988Z,31.05
2022-08-20T06:55:58.119Z,28.63
2022-08-20T07:01:09.101Z,30.05
2022-08-20T07:06:16.044Z,32.95
2022-08-20T07:11:18.566Z,30.83
2022-08-20T07:16:25.741Z,31.95
2022-08-20T07:21:33.896Z,30.83
2022-08-20T07:26:43.855Z,29.00
2022-08-20T07:32:04.995Z,33.63
2022-08-20T07:37:07.369Z,24.98
2022-08-20T07:42:13.120Z,22.00
2022-08-20T07:47:19.774Z,18.17
2022-08-20T07:52:26.627Z,21.05
2022-08-20T07:57:33.988Z,18.67
2022-08-20T08:02:39.889Z,17.02
2022-08-20T08:07:48.001Z,18.23
2022-08-20T08:12:56.134Z,17.98
2022-08-20T08:18:01.062Z,16.35
2022-08-20T08:23:03.865Z,20.73
2022-08-20T08:28:10.730Z,15.35
2022-08-20T08:33:28.276Z,17.27
2022-08-20T08:38:36.606Z,15.40
2022-08-20T08:43:44.454Z,17.85
2022-08-20T08:48:56.559Z,18.90
2022-08-20T08:54:07.202Z,17.02
2022-08-20T08:59:14.190Z,19.70
2022-08-20T09:04:21.853Z,22.70
2022-08-20T09:09:33.770Z,19.92
2022-08-20T09:14:41.673Z,19.35
2022-08-20T09:19:44.348Z,14.98
2022-08-20T09:24:46.963Z,16.02
2022-08-20T09:29:53.596Z,20.50
2022-08-20T09:34:57.193Z,16.55
2022-08-20T09:40:03.257Z,20.88
2022-08-20T09:45:11.031Z,12.98
2022-08-20T09:50:19.605Z,14.77
2022-08-20T09:55:33.893Z,15.43
2022-08-20T10:00:39.834Z,15.48
2022-08-20T10:05:49.613Z,14.30
2022-08-20T10:10:59.131Z,11.73
2022-08-20T10:16:08.506Z,15.05
2022-08-20T10:21:11.579Z,14.88
2022-08-20T10:26:17.199Z,17.77
2022-08-20T10:31:19.728Z,16.02
2022-08-20T10:36:24.663Z,17.65
2022-08-20T10:41:30.733Z,15.60
2022-08-20T10:46:33.074Z,15.48
2022-08-20T10:51:38.916Z,18.98
2022-08-20T10:56:41.801Z,17.77
2022-08-20T11:01:44.334Z,14.50
2022-08-20T11:06:46.781Z,16.65
2022-08-20T11:11:51.930Z,13.93
2022-08-20T11:16:56.606Z,15.55
2022-08-20T11:21:59.573Z,15.60
2022-08-20T11:27:05.664Z,17.60
2022-08-20T11:32:10.563Z,17.88
2022-08-20T11:37:13.952Z,21.92
2022-08-20T11:42:16.792Z,19.65
2022-08-20T11:47:23.408Z,16.05
2022-08-20T11:52:26.623Z,21.88
2022-08-20T11:57:37.814Z,18.23
2022-08-20T12:02:42.533Z,18.98
2022-08-20T12:07:49.570Z,19.55
2022-08-20T12:12:55.334Z,17.25
2022-08-20T12:18:00.086Z,20.75
2022-08-20T12:23:09.563Z,20.17
2022-08-20T12:28:13.057Z,25.58
2022-08-20T12:33:17.678Z,23.38
2022-08-20T12:38:20.185Z,25.98
2022-08-20T12:43:27.482Z,27.08
2022-08-20T12:48:32.973Z,27.27
2022-08-20T12:53:37.522Z,26.65
2022-08-20T12:58:42.517Z,28.60
2022-08-20T13:03:47.308Z,25.77
2022-08-20T13:08:54.498Z,26.63
2022-08-20T13:14:02.005Z,32.20
2022-08-20T13:19:04.731Z,32.13
2022-08-20T13:24:09.955Z,41.38
2022-08-20T13:29:12.308Z,39.13
2022-08-20T13:34:15.046Z,40.75
2022-08-20T13:39:26.805Z,43.85
2022-08-20T13:44:33.155Z,42.67
2022-08-20T13:49:35.743Z,44.85
2022-08-20T13:54:38.635Z,44.75
2022-08-20T13:59:45.723Z,44.58
2022-08-20T14:04:48.576Z,42.80
2022-08-20T14:09:57.693Z,37.67
2022-08-20T14:15:02.951Z,37.95
2022-08-20T14:20:08.151Z,34.35
2022-08-20T14:25:14.185Z,42.13
2022-08-20T14:30:19.241Z,41.70
2022-08-20T14:35:26.471Z,41.40
2022-08-20T14:40:31.904Z,42.78
2022-08-20T14:45:36.881Z,40.55
2022-08-20T14:50:39.347Z,36.47
2022-08-20T14:55:44.155Z,36.28
2022-08-20T15:00:46.993Z,34.08
2022-08-20T15:05:52.120Z,35.95
2022-08-20T15:10:54.680Z,32.60
2022-08-20T15:15:57.266Z,33.22
2022-08-20T15:20:59.818Z,31.23
2022-08-20T15:26:02.190Z,29.83
2022-08-20T15:31:09.333Z,28.25
2022-08-20T15:36:14.103Z,25.55
2022-08-20T15:41:16.687Z,29.55
2022-08-20T15:46:21.889Z,30.70
2022-08-20T15:51:34.516Z,28.02
2022-08-20T15:56:55.272Z,23.38
2022-08-20T16:02:00.541Z,22.90
2022-08-20T16:07:07.313Z,25.80
2022-08-20T16:12:28.516Z,23.65
2022-08-20T16:17:37.399Z,23.38
2022-08-20T16:22:44.211Z,24.52
2022-08-20T16:27:55.464Z,27.83
2022-08-20T16:33:01.518Z,27.90
2022-08-20T16:38:04.039Z,23.85
2022-08-20T16:43:09.586Z,28.70
2022-08-20T16:48:14.317Z,23.88
2022-08-20T16:53:25.615Z,26.15
2022-08-20T16:58:30.297Z,23.48
2022-08-20T17:03:39.293Z,26.10
2022-08-20T17:08:50.466Z,24.05
2022-08-20T17:14:04.782Z,22.63
2022-08-20T17:19:12.904Z,27.63
2022-08-20T17:24:19.973Z,25.48
2022-08-20T17:29:24.056Z,22.98
2022-08-20T17:34:28.681Z,22.42
2022-08-20T17:39:32.107Z,25.27
2022-08-20T17:44:39.282Z,26.40
2022-08-20T17:50:00.505Z,26.95
2022-08-20T17:55:10.008Z,29.92
2022-08-20T18:00:23.441Z,31.33
2022-08-20T18:05:31.234Z,36.55
2022-08-20T18:10:44.904Z,39.65
2022-08-20T18:15:50.839Z,37.92
2022-08-20T18:21:00.314Z,35.38
2022-08-20T18:26:10.799Z,34.27
2022-08-20T18:31:25.783Z,33.83
2022-08-20T18:36:30.515Z,34.30
2022-08-20T18:41:38.426Z,34.13
2022-08-20T18:46:52.279Z,31.05
2022-08-20T18:52:08.433Z,29.63
2022-08-20T18:57:20.906Z,31.20
2022-08-20T19:02:35.702Z,30.90
2022-08-20T19:07:48.572Z,29.87
2022-08-20T19:13:03.825Z,31.40
2022-08-20T19:18:10.730Z,29.53
2022-08-20T19:23:19.592Z,29.50
2022-08-20T19:28:25.255Z,31.02
2022-08-20T19:33:31.317Z,29.98
2022-08-20T19:38:41.808Z,30.83
2022-08-20T19:43:45.690Z,29.80
2022-08-20T19:49:08.992Z,29.40
2022-08-20T19:54:21.546Z,28.17
2022-08-20T19:59:27.368Z,30.77
2022-08-20T20:04:59.494Z,29.10
2022-08-20T20:10:02.959Z,28.63
2022-08-20T20:15:06.780Z,27.97
2022-08-20T20:20:18.383Z,29.03
2022-08-20T20:25:31.120Z,28.20
2022-08-20T20:30:37.612Z,26.87
2022-08-20T20:35:43.636Z,27.73
2022-08-20T20:40:51.773Z,26.37
2022-08-20T20:46:05.048Z,27.67
2022-08-20T20:51:15.006Z,27.57
2022-08-20T20:56:26.431Z,26.73
2022-08-20T21:01:45.747Z,28.83
2022-08-20T21:06:57.500Z,27.60
2022-08-20T21:12:02.515Z,28.53
2022-08-20T21:17:14.668Z,27.07
2022-08-20T21:22:22.046Z,26.87
2022-08-20T21:27:26.655Z,26.90
2022-08-20T21:32:31.250Z,27.27
2022-08-20T21:37:43.713Z,27.60
2022-08-20T21:42:52.095Z,26.43
2022-08-20T21:47:58.556Z,25.97
2022-08-20T21:53:02.474Z,25.90
2022-08-20T21:58:16.059Z,26.00
2022-08-20T22:03:20.074Z,25.47
2022-08-20T22:08:28.395Z,26.73
2022-08-20T22:13:38.265Z,27.53
2022-08-20T22:18:40.992Z,26.67
2022-08-20T22:23:48.710Z,24.73
2022-08-20T22:28:51.546Z,25.35
2022-08-20T22:33:56.646Z,23.77
2022-08-20T22:39:01.796Z,26.90
2022-08-20T22:44:04.212Z,28.50
2022-08-20T22:49:10.922Z,25.90
2022-08-20T22:54:19.489Z,25.92
2022-08-20T22:59:24.143Z,26.48
2022-08-20T23:04:31.080Z,28.73
2022-08-20T23:09:38.933Z,24.77
2022-08-20T23:14:43.837Z,26.40
2022-08-20T23:19:47.081Z,26.63
2022-08-20T23:24:49.597Z,24.17
2022-08-20T23:29:54.366Z,25.85
2022-08-20T23:34:56.699Z,24.42
2022-08-20T23:40:04.901Z,23.10
2022-08-20T23:45:10.423Z,23.17
2022-08-20T23:50:14.709Z,20.97
2022-08-20T23:55:24.674Z,18.73
